This is the latest recevied weather packets stored in our database for station/object ALAKES. If no packets are shown the sender has not sent any weather packets the latest 10 day(s).
| Time | Temp. | Humidity | Pressure | Rain* | Wind** | Luminosity | Snow |
|---|---|---|---|---|---|---|---|
| 1787543070 | 8.33° C | 66% | - | 0 mm | - | - | - |
| 1787542452 | 8.33° C | 66% | - | 0 mm | - | - | - |
| 1787541830 | 8.33° C | 65% | - | 0 mm | - | - | - |
| 1787541209 | 8.89° C | 65% | - | 0 mm | - | - | - |
| 1787540582 | 8.89° C | 63% | - | 0 mm | - | - | - |
| 1787539948 | 9.44° C | 62% | - | 0 mm | - | - | - |
| 1787539322 | 10° C | 60% | - | 0 mm | - | - | - |
| 1787538705 | 10.56° C | 57% | - | 0 mm | - | - | - |
| 1787538077 | 11.11° C | 55% | - | 0 mm | - | - | - |
| 1787537455 | 11.67° C | 53% | - | 0 mm | - | - | - |
| 1787536838 | 11.67° C | 51% | - | 0 mm | - | - | - |
| 1787536206 | 12.22° C | 49% | - | 0 mm | - | - | - |
| 1787535584 | 12.78° C | 48% | - | 0 mm | - | - | - |
| 1787534966 | 13.33° C | 46% | - | 0 mm | - | - | - |
| 1787534338 | 13.89° C | 44% | - | 0 mm | - | - | - |
| 1787533717 | 13.89° C | 44% | - | 0 mm | - | - | - |
| 1787533095 | 14.44° C | 43% | - | 0 mm | - | - | - |
| 1787532469 | 14.44° C | 43% | - | 0 mm | - | - | - |
| 1787531890 | 15.56° C | 37% | - | 0 mm | - | - | - |
| 1787531847 | 15.56° C | 37% | - | 0 mm | - | - | - |
| 1787531224 | 15.56° C | 33% | - | 0 mm | - | - | - |
| 1787530592 | 16.11° C | 33% | - | 0 mm | - | - | - |
| 1787529968 | 16.67° C | 29% | - | 0 mm | - | - | - |
| 1787529340 | 16.67° C | 27% | - | 0 mm | - | - | - |
| 1787528718 | 16.67° C | 29% | - | 0 mm | - | - | - |
* Rain latest 24 hours (hover to see other rain measurements)
** Current wind speed in m/s (hover to see current wind gust speed)